createdAt,value
2018-07-04T00:02:35.334Z,94847.87
2018-07-04T00:05:22.239Z,94854.56
2018-07-04T00:08:08.781Z,94847.05
2018-07-04T00:10:55.843Z,94849.25
2018-07-04T00:13:42.957Z,94853.73
2018-07-04T00:16:29.935Z,94855.89
2018-07-04T00:19:16.715Z,94854.77
2018-07-04T00:22:03.807Z,94857.97
2018-07-04T00:24:50.370Z,94853.16
2018-07-04T00:27:37.334Z,94864.05
2018-07-04T00:30:24.024Z,94856.87
2018-07-04T00:33:11.350Z,94855.67
2018-07-04T00:35:58.127Z,94847.09
2018-07-04T00:38:44.967Z,94853.34
2018-07-04T00:41:31.711Z,94855.06
2018-07-04T00:44:18.711Z,94863.42
2018-07-04T00:47:05.455Z,94863.25
2018-07-04T00:49:52.434Z,94859.58
2018-07-04T00:52:39.035Z,94864.22
2018-07-04T00:55:25.706Z,94861.27
2018-07-04T00:58:12.356Z,94855.52
2018-07-04T01:00:59.025Z,94857.14
2018-07-04T01:03:45.626Z,94843.77
2018-07-04T01:06:32.311Z,94844.12
2018-07-04T01:09:19.315Z,94841.84
2018-07-04T01:12:05.992Z,94841.34
2018-07-04T01:14:53.233Z,94841.00
2018-07-04T01:17:39.870Z,94839.71
2018-07-04T01:20:31.150Z,94838.08
2018-07-04T01:23:17.827Z,94834.95
2018-07-04T01:26:04.966Z,94842.41
2018-07-04T01:28:51.618Z,94839.72
2018-07-04T01:31:38.713Z,94837.75
2018-07-04T01:34:25.460Z,94842.72
2018-07-04T01:37:12.443Z,94844.94
2018-07-04T01:39:59.387Z,94845.86
2018-07-04T01:42:46.470Z,94845.95
2018-07-04T01:45:33.209Z,94837.56
2018-07-04T01:48:20.473Z,94832.30
2018-07-04T01:51:07.242Z,94827.47
2018-07-04T01:53:53.963Z,94824.77
2018-07-04T01:56:40.882Z,94827.28
2018-07-04T01:59:27.697Z,94826.83
2018-07-04T02:02:14.779Z,94824.63
2018-07-04T02:05:01.604Z,94829.43
2018-07-04T02:07:48.599Z,94832.97
2018-07-04T02:10:35.471Z,94843.58
2018-07-04T02:13:22.234Z,94847.97
2018-07-04T02:16:08.874Z,94842.91
2018-07-04T02:18:55.936Z,94836.42
2018-07-04T02:21:42.627Z,94839.91
2018-07-04T02:24:29.342Z,94829.33
2018-07-04T02:27:16.374Z,94822.06
2018-07-04T02:30:03.607Z,94832.48
2018-07-04T02:32:50.399Z,94826.03
2018-07-04T02:35:37.538Z,94826.33
2018-07-04T02:38:24.534Z,94819.55
2018-07-04T02:41:11.870Z,94825.86
2018-07-04T02:43:58.496Z,94820.95
2018-07-04T02:46:45.604Z,94822.34
2018-07-04T02:49:32.350Z,94828.70
2018-07-04T02:52:19.642Z,94829.73
2018-07-04T02:55:06.223Z,94835.92
2018-07-04T02:57:53.356Z,94835.92
2018-07-04T03:00:40.258Z,94840.67
2018-07-04T03:03:27.386Z,94844.75
2018-07-04T03:06:14.300Z,94799.23
2018-07-04T03:09:01.382Z,94854.02
2018-07-04T03:11:48.366Z,94858.49
2018-07-04T03:14:35.415Z,94864.61
2018-07-04T03:17:21.817Z,94863.36
2018-07-04T03:20:08.832Z,94856.87
2018-07-04T03:22:55.687Z,94851.89
2018-07-04T03:25:43.014Z,94844.33
2018-07-04T03:28:29.578Z,94845.00
2018-07-04T03:31:16.448Z,94845.70
2018-07-04T03:34:03.298Z,94836.67
2018-07-04T03:36:50.079Z,94835.52
2018-07-04T03:39:37.057Z,94838.22
2018-07-04T03:42:24.413Z,94836.89
2018-07-04T03:45:11.192Z,94841.59
2018-07-04T03:47:58.517Z,94836.67
2018-07-04T03:50:44.960Z,94831.02
2018-07-04T03:53:32.204Z,94823.52
2018-07-04T03:56:19.186Z,94829.62
2018-07-04T03:59:06.200Z,94824.92
2018-07-04T04:01:52.974Z,94831.83
2018-07-04T04:04:40.219Z,94840.39
2018-07-04T04:07:26.921Z,94845.16
2018-07-04T04:10:14.162Z,94857.88
2018-07-04T04:13:00.903Z,94864.66
2018-07-04T04:15:48.196Z,94879.63
2018-07-04T04:18:34.688Z,94885.84
2018-07-04T04:21:21.923Z,94889.66
2018-07-04T04:24:08.812Z,94894.89
2018-07-04T04:26:55.811Z,94905.27
2018-07-04T04:29:42.767Z,94908.57
2018-07-04T04:32:29.672Z,94901.73
2018-07-04T04:35:16.503Z,94895.83
2018-07-04T04:38:03.559Z,94894.93
2018-07-04T04:40:50.279Z,94895.63
2018-07-04T04:43:37.354Z,94899.12
2018-07-04T04:46:24.105Z,94894.58
2018-07-04T04:49:10.838Z,94894.06
2018-07-04T04:51:57.375Z,94888.38
2018-07-04T04:54:43.890Z,94888.30
2018-07-04T04:57:30.450Z,94891.05
2018-07-04T05:00:17.250Z,94890.80
2018-07-04T05:03:03.895Z,94889.63
2018-07-04T05:05:50.759Z,94888.69
2018-07-04T05:08:37.439Z,94885.73
2018-07-04T05:11:24.642Z,94880.98
2018-07-04T05:14:11.310Z,94867.70
2018-07-04T05:16:57.609Z,94866.70
2018-07-04T05:19:43.994Z,94867.70
2018-07-04T05:22:30.555Z,94859.27
2018-07-04T05:25:17.359Z,94863.17
2018-07-04T05:28:04.366Z,94860.66
2018-07-04T05:30:51.271Z,94852.50
2018-07-04T05:33:38.218Z,94854.18
2018-07-04T05:36:25.101Z,94854.67
2018-07-04T05:39:12.112Z,94847.84
2018-07-04T05:41:58.831Z,94848.28
2018-07-04T05:44:45.950Z,94844.99
2018-07-04T05:47:32.952Z,94849.91
2018-07-04T05:50:20.107Z,94851.83
2018-07-04T05:53:06.998Z,94856.03
2018-07-04T05:55:54.336Z,94850.41
2018-07-04T05:58:41.069Z,94845.73
2018-07-04T06:01:28.387Z,94843.20
2018-07-04T06:04:15.143Z,94834.16
2018-07-04T06:07:02.368Z,94837.23
2018-07-04T06:09:49.023Z,94843.89
2018-07-04T06:12:36.227Z,94834.67
2018-07-04T06:15:22.908Z,94834.15
2018-07-04T06:18:10.158Z,94827.08
2018-07-04T06:20:56.860Z,94819.77
2018-07-04T06:23:43.994Z,94815.47
2018-07-04T06:26:30.779Z,94817.61
2018-07-04T06:29:17.929Z,94814.48
2018-07-04T06:32:04.611Z,94810.80
2018-07-04T06:34:51.552Z,94814.48
2018-07-04T06:37:41.407Z,94812.35
2018-07-04T06:40:10.621Z,94803.11
2018-07-04T06:42:39.019Z,94804.88
2018-07-04T06:45:06.932Z,94801.33
2018-07-04T06:47:35.171Z,94798.19
2018-07-04T06:50:03.212Z,94793.30
2018-07-04T06:52:31.127Z,94792.80
2018-07-04T06:54:59.385Z,94790.11
2018-07-04T06:57:27.386Z,94789.95
2018-07-04T06:59:55.452Z,94790.53
2018-07-04T07:02:23.904Z,94794.16
2018-07-04T07:05:04.649Z,94791.25
2018-07-04T07:07:52.084Z,94787.50
2018-07-04T07:10:38.968Z,94787.44
2018-07-04T07:13:25.681Z,94788.05
2018-07-04T07:16:12.076Z,94785.73
2018-07-04T07:18:59.130Z,94787.58
2018-07-04T07:21:45.675Z,94790.71
2018-07-04T07:24:32.876Z,94781.20
2018-07-04T07:27:19.648Z,94786.38
2018-07-04T07:30:06.902Z,94790.33
2018-07-04T07:32:53.687Z,94785.00
2018-07-04T07:35:40.511Z,94781.13
2018-07-04T07:38:27.359Z,94776.27
2018-07-04T07:41:14.265Z,94777.69
2018-07-04T07:44:00.752Z,94780.19
2018-07-04T07:46:47.430Z,94778.28
2018-07-04T07:49:34.302Z,94786.16
2018-07-04T07:52:21.603Z,94780.91
2018-07-04T07:55:08.695Z,94771.95
2018-07-04T07:57:55.979Z,94771.47
2018-07-04T08:00:42.831Z,94772.14
2018-07-04T08:03:30.071Z,94773.09
2018-07-04T08:06:16.976Z,94771.99
2018-07-04T08:09:04.827Z,94767.19
2018-07-04T08:11:51.250Z,94761.88
2018-07-04T08:14:38.330Z,94762.44
2018-07-04T08:17:25.232Z,94762.66
2018-07-04T08:20:12.174Z,94763.34
2018-07-04T08:22:59.163Z,94760.39
2018-07-04T08:25:47.272Z,94760.81
2018-07-04T08:28:33.907Z,94758.59
2018-07-04T08:31:20.956Z,94750.69
2018-07-04T08:34:07.746Z,94757.56
2018-07-04T08:36:54.987Z,94758.94
2018-07-04T08:39:41.779Z,94749.44
2018-07-04T08:42:29.010Z,94747.19
2018-07-04T08:45:15.539Z,94747.45
2018-07-04T08:48:02.635Z,94744.50
2018-07-04T08:50:49.587Z,94743.68
2018-07-04T08:53:36.871Z,94742.92
2018-07-04T08:56:23.594Z,94736.44
2018-07-04T08:59:10.716Z,94733.22
2018-07-04T09:01:57.555Z,94718.30
2018-07-04T09:04:44.411Z,94721.38
2018-07-04T09:07:30.827Z,94712.27
2018-07-04T09:10:17.519Z,94716.59
2018-07-04T09:13:03.932Z,94715.28
2018-07-04T09:15:50.963Z,94709.95
2018-07-04T09:18:37.610Z,94709.08
2018-07-04T09:21:24.243Z,94703.92
2018-07-04T09:24:11.158Z,94709.83
2018-07-04T09:26:58.410Z,94710.42
2018-07-04T09:29:45.177Z,94713.08
2018-07-04T09:32:32.460Z,94705.35
2018-07-04T09:35:19.235Z,94709.48
2018-07-04T09:38:06.523Z,94702.31
2018-07-04T09:40:52.962Z,94701.05
2018-07-04T09:43:39.771Z,94694.84
2018-07-04T09:46:26.597Z,94695.03
2018-07-04T09:49:13.439Z,94684.92
2018-07-04T09:52:00.424Z,94677.58
2018-07-04T09:54:47.455Z,94675.77
2018-07-04T09:57:34.256Z,94668.30
2018-07-04T10:00:25.492Z,94660.77
2018-07-04T10:03:12.077Z,94660.84
2018-07-04T10:05:59.215Z,94654.44
2018-07-04T10:08:46.009Z,94665.25
2018-07-04T10:11:33.643Z,94655.81
2018-07-04T10:14:20.169Z,94661.29
2018-07-04T10:17:06.889Z,94667.84
2018-07-04T10:19:53.601Z,94667.40
2018-07-04T10:22:40.863Z,94662.17
2018-07-04T10:25:27.742Z,94655.59
2018-07-04T10:28:14.935Z,94651.48
2018-07-04T10:31:01.711Z,94653.31
2018-07-04T10:33:49.624Z,94647.70
2018-07-04T10:36:36.378Z,94651.35
2018-07-04T10:39:23.713Z,94639.02
2018-07-04T10:42:10.207Z,94640.00
2018-07-04T10:44:56.549Z,94646.14
2018-07-04T10:47:43.056Z,94641.56
2018-07-04T10:50:29.619Z,94631.12
2018-07-04T10:53:16.528Z,94626.89
2018-07-04T10:56:03.120Z,94623.19
2018-07-04T10:58:50.092Z,94628.81
2018-07-04T11:01:36.696Z,94627.26
2018-07-04T11:04:23.878Z,94621.45
2018-07-04T11:07:10.441Z,94624.50
2018-07-04T11:09:57.209Z,94619.97
2018-07-04T11:12:44.432Z,94617.88
2018-07-04T11:15:30.723Z,94613.99
2018-07-04T11:18:17.580Z,94618.59
2018-07-04T11:21:04.449Z,94620.20
2018-07-04T11:23:51.368Z,94633.11
2018-07-04T11:26:38.231Z,94640.14
2018-07-04T11:29:25.603Z,94632.83
2018-07-04T11:32:12.620Z,94623.97
2018-07-04T11:34:59.534Z,94623.55
2018-07-04T11:37:46.370Z,94628.84
2018-07-04T11:40:33.731Z,94617.28
2018-07-04T11:43:20.894Z,94576.69
2018-07-04T11:45:58.015Z,94548.66
2018-07-04T11:48:26.152Z,94544.94
2018-07-04T11:50:56.132Z,94564.19
2018-07-04T11:53:24.431Z,94583.30
2018-07-04T11:55:52.556Z,94596.89
2018-07-04T11:58:20.686Z,94594.81
2018-07-04T12:00:49.138Z,94624.59
2018-07-04T12:03:18.784Z,94618.16
2018-07-04T12:05:59.809Z,94611.89
2018-07-04T12:08:34.001Z,94599.58
2018-07-04T12:11:02.555Z,94595.08
2018-07-04T12:13:30.555Z,94601.36
2018-07-04T12:15:58.606Z,94592.88
2018-07-04T12:18:26.919Z,94579.67
2018-07-04T12:20:54.991Z,94579.73
2018-07-04T12:23:23.066Z,94572.58
2018-07-04T12:25:51.492Z,94555.58
2018-07-04T12:28:19.609Z,94564.42
2018-07-04T12:30:47.700Z,94563.12
2018-07-04T12:33:16.333Z,94556.14
2018-07-04T12:35:44.458Z,94549.01
2018-07-04T12:38:12.670Z,94549.83
2018-07-04T12:40:40.729Z,94541.66
2018-07-04T12:43:08.781Z,94538.58
2018-07-04T12:45:39.547Z,94531.53
2018-07-04T12:48:05.140Z,94526.63
2018-07-04T12:50:34.003Z,94516.45
2018-07-04T12:53:02.346Z,94510.91
2018-07-04T12:55:44.754Z,94504.97
2018-07-04T12:58:31.589Z,94505.12
2018-07-04T13:01:18.884Z,94496.82
2018-07-04T13:04:05.652Z,94505.85
2018-07-04T13:06:53.028Z,94505.47
2018-07-04T13:09:39.839Z,94498.20
2018-07-04T13:12:27.300Z,94497.89
2018-07-04T13:15:13.940Z,94495.88
2018-07-04T13:18:00.992Z,94488.83
2018-07-04T13:20:47.960Z,94492.33
2018-07-04T13:23:35.233Z,94488.25
2018-07-04T13:26:22.068Z,94479.98
2018-07-04T13:29:09.237Z,94484.30
2018-07-04T13:31:56.012Z,94476.64
2018-07-04T13:34:43.257Z,94483.37
2018-07-04T13:37:30.053Z,94479.78
2018-07-04T13:40:16.714Z,94483.95
2018-07-04T13:43:04.228Z,94479.30
2018-07-04T13:45:51.179Z,94477.06
2018-07-04T13:48:37.807Z,94479.25
2018-07-04T13:51:24.770Z,94469.73
2018-07-04T13:54:11.600Z,94470.78
2018-07-04T13:56:58.653Z,94468.83
2018-07-04T13:59:45.519Z,94472.71
2018-07-04T14:02:32.431Z,94471.27
2018-07-04T14:05:19.201Z,94466.48
2018-07-04T14:08:06.371Z,94466.89
2018-07-04T14:10:52.770Z,94465.46
2018-07-04T14:13:39.643Z,94470.09
2018-07-04T14:16:25.969Z,94477.63
2018-07-04T14:19:13.208Z,94472.40
2018-07-04T14:22:00.038Z,94488.02
2018-07-04T14:24:47.402Z,94499.59
2018-07-04T14:27:34.147Z,94500.05
2018-07-04T14:30:20.926Z,94493.42
2018-07-04T14:33:07.987Z,94475.91
2018-07-04T14:35:55.072Z,94466.16
2018-07-04T14:38:42.120Z,94465.36
2018-07-04T14:41:28.810Z,94461.81
2018-07-04T14:44:15.268Z,94455.06
2018-07-04T14:47:02.027Z,94451.23
2018-07-04T14:49:48.957Z,94467.39
2018-07-04T14:52:35.876Z,94476.77
2018-07-04T14:55:22.633Z,94480.95
2018-07-04T14:58:09.904Z,94499.49
2018-07-04T15:00:56.602Z,94508.13
2018-07-04T15:03:44.144Z,94499.19
2018-07-04T15:06:31.264Z,94493.14
2018-07-04T15:09:18.590Z,94508.88
2018-07-04T15:12:05.157Z,94531.84
2018-07-04T15:14:52.119Z,94555.38
2018-07-04T15:17:39.240Z,94576.66
2018-07-04T15:20:26.245Z,94632.92
2018-07-04T15:23:13.272Z,94620.55
2018-07-04T15:26:00.688Z,94610.13
2018-07-04T15:28:47.908Z,94552.55
2018-07-04T15:31:35.334Z,94533.33
2018-07-04T15:34:22.937Z,94579.08
2018-07-04T15:37:10.032Z,94583.22
2018-07-04T15:39:56.692Z,94575.91
2018-07-04T15:42:43.775Z,94574.56
2018-07-04T15:45:30.943Z,94602.52
2018-07-04T15:48:18.324Z,94619.66
2018-07-04T15:51:05.494Z,94613.00
2018-07-04T15:53:53.224Z,94613.94
2018-07-04T15:56:40.637Z,94645.18
2018-07-04T15:59:28.035Z,94679.92
2018-07-04T16:02:14.976Z,94725.42
2018-07-04T16:05:02.505Z,94753.70
2018-07-04T16:07:49.744Z,94729.64
2018-07-04T16:10:37.393Z,94700.30
2018-07-04T16:13:24.074Z,94692.86
2018-07-04T16:16:11.292Z,94702.75
2018-07-04T16:18:58.509Z,94693.34
2018-07-04T16:21:46.135Z,94694.19
2018-07-04T16:24:33.321Z,94665.65
2018-07-04T16:27:20.894Z,94636.77
2018-07-04T16:30:08.419Z,94630.54
2018-07-04T16:32:55.843Z,94632.28
2018-07-04T16:35:42.997Z,94623.55
2018-07-04T16:38:29.970Z,94611.38
2018-07-04T16:41:16.650Z,94601.09
2018-07-04T16:44:04.324Z,94618.19
2018-07-04T16:46:51.240Z,94635.39
2018-07-04T16:49:38.972Z,94640.88
2018-07-04T16:52:26.277Z,94632.44
2018-07-04T16:55:13.715Z,94630.70
2018-07-04T16:58:00.839Z,94629.51
2018-07-04T17:00:48.369Z,94648.31
2018-07-04T17:03:35.589Z,94666.79
2018-07-04T17:06:23.313Z,94673.80
2018-07-04T17:09:10.169Z,94671.94
2018-07-04T17:11:57.269Z,94660.48
2018-07-04T17:14:44.580Z,94685.31
2018-07-04T17:17:31.668Z,94698.85
2018-07-04T17:20:18.786Z,94684.38
2018-07-04T17:23:06.653Z,94688.66
2018-07-04T17:25:53.874Z,94683.16
2018-07-04T17:28:41.218Z,94671.23
2018-07-04T17:31:28.430Z,94674.24
2018-07-04T17:34:15.684Z,94670.88
2018-07-04T17:37:02.861Z,94666.33
2018-07-04T17:39:49.658Z,94660.31
2018-07-04T17:42:37.040Z,94672.90
2018-07-04T17:45:24.689Z,94689.11
2018-07-04T17:48:11.854Z,94705.66
2018-07-04T17:50:59.454Z,94710.69
2018-07-04T17:53:47.023Z,94707.61
2018-07-04T17:56:34.648Z,94698.54
2018-07-04T17:59:21.968Z,94716.50
2018-07-04T18:02:09.392Z,94728.42
2018-07-04T18:04:56.817Z,94765.73
2018-07-04T18:07:45.043Z,94824.44
2018-07-04T18:10:32.490Z,94809.31
2018-07-04T18:13:20.682Z,94780.97
2018-07-04T18:16:07.975Z,94775.45
2018-07-04T18:18:55.572Z,94789.25
2018-07-04T18:21:42.709Z,94791.39
2018-07-04T18:24:30.144Z,94796.05
2018-07-04T18:27:17.013Z,94805.30
2018-07-04T18:30:04.196Z,94818.50
2018-07-04T18:32:51.033Z,94808.31
2018-07-04T18:35:38.739Z,94790.80
2018-07-04T18:38:25.964Z,94779.18
2018-07-04T18:41:13.772Z,94786.86
2018-07-04T18:44:00.925Z,94779.81
2018-07-04T18:46:48.417Z,94778.69
2018-07-04T18:49:35.655Z,94769.18
2018-07-04T18:52:22.724Z,94762.99
2018-07-04T18:55:09.419Z,94762.43
2018-07-04T18:57:56.495Z,94767.41
2018-07-04T19:00:43.356Z,94770.41
2018-07-04T19:03:31.045Z,94788.70
2018-07-04T19:06:18.392Z,94798.47
2018-07-04T19:09:06.906Z,94796.64
2018-07-04T19:11:54.132Z,94794.47
2018-07-04T19:14:41.798Z,94797.45
2018-07-04T19:17:29.291Z,94802.50
2018-07-04T19:20:17.022Z,94790.47
2018-07-04T19:23:04.434Z,94787.13
2018-07-04T19:25:51.094Z,94780.47
2018-07-04T19:28:38.203Z,94783.00
2018-07-04T19:31:24.943Z,94788.06
2018-07-04T19:34:12.218Z,94785.90
2018-07-04T19:36:58.878Z,94783.32
2018-07-04T19:39:46.047Z,94786.14
2018-07-04T19:42:32.725Z,94790.19
2018-07-04T19:45:19.696Z,94774.88
2018-07-04T19:48:06.625Z,94772.50
2018-07-04T19:50:53.529Z,94767.41
2018-07-04T19:53:39.934Z,94765.27
2018-07-04T19:56:26.663Z,94761.75
2018-07-04T19:59:13.078Z,94768.19
2018-07-04T20:02:00.116Z,94778.27
2018-07-04T20:04:46.778Z,94782.55
2018-07-04T20:07:33.978Z,94775.69
2018-07-04T20:10:20.768Z,94783.09
2018-07-04T20:13:07.676Z,94792.15
2018-07-04T20:15:54.271Z,94796.42
2018-07-04T20:18:41.160Z,94799.30
2018-07-04T20:21:28.039Z,94808.20
2018-07-04T20:24:15.250Z,94809.86
2018-07-04T20:27:01.767Z,94811.19
2018-07-04T20:29:48.781Z,94817.97
2018-07-04T20:32:35.817Z,94822.87
2018-07-04T20:35:22.920Z,94824.81
2018-07-04T20:38:09.490Z,94824.96
2018-07-04T20:40:56.746Z,94824.05
2018-07-04T20:43:43.535Z,94818.78
2018-07-04T20:46:30.466Z,94812.45
2018-07-04T20:49:17.701Z,94808.54
2018-07-04T20:52:04.583Z,94810.63
2018-07-04T20:54:51.568Z,94811.73
2018-07-04T20:57:37.880Z,94806.02
2018-07-04T21:00:24.952Z,94807.37
2018-07-04T21:03:11.664Z,94804.93
2018-07-04T21:05:58.661Z,94800.11
2018-07-04T21:08:45.303Z,94795.86
2018-07-04T21:11:32.594Z,94797.33
2018-07-04T21:14:19.118Z,94792.45
2018-07-04T21:17:06.012Z,94791.08
2018-07-04T21:19:52.747Z,94790.68
2018-07-04T21:22:40.248Z,94777.71
2018-07-04T21:25:26.819Z,94775.58
2018-07-04T21:28:13.579Z,94790.03
2018-07-04T21:31:00.472Z,94790.72
2018-07-04T21:33:47.904Z,94795.22
2018-07-04T21:36:34.796Z,94800.51
2018-07-04T21:39:21.965Z,94790.19
2018-07-04T21:42:08.718Z,94787.03
2018-07-04T21:44:55.563Z,94793.33
2018-07-04T21:47:42.654Z,94797.69
2018-07-04T21:50:29.966Z,94788.44
2018-07-04T21:53:16.423Z,94794.53
2018-07-04T21:56:02.880Z,94793.80
2018-07-04T21:58:49.742Z,94787.90
2018-07-04T22:01:36.947Z,94789.17
2018-07-04T22:04:23.512Z,94788.77
2018-07-04T22:07:10.928Z,94787.95
2018-07-04T22:09:57.666Z,94782.28
2018-07-04T22:12:44.748Z,94782.68
2018-07-04T22:15:31.446Z,94782.05
2018-07-04T22:18:18.530Z,94784.20
2018-07-04T22:21:05.096Z,94780.79
2018-07-04T22:23:51.934Z,94777.68
2018-07-04T22:26:38.286Z,94768.30
2018-07-04T22:29:24.839Z,94767.43
2018-07-04T22:32:11.411Z,94764.44
2018-07-04T22:34:58.075Z,94758.88
2018-07-04T22:37:45.485Z,94756.00
2018-07-04T22:40:32.190Z,94760.92
2018-07-04T22:43:19.330Z,94754.98
2018-07-04T22:46:06.134Z,94751.67
2018-07-04T22:48:52.834Z,94752.77
2018-07-04T22:51:39.650Z,94743.34
2018-07-04T22:54:26.219Z,94742.91
2018-07-04T22:57:12.860Z,94738.59
2018-07-04T23:00:00.179Z,94748.06
2018-07-04T23:02:46.902Z,94746.52
2018-07-04T23:05:34.134Z,94754.42
2018-07-04T23:08:21.143Z,94752.77
2018-07-04T23:11:08.067Z,94760.51
2018-07-04T23:13:54.859Z,94763.94
2018-07-04T23:16:42.106Z,94757.14
2018-07-04T23:19:28.526Z,94759.44
2018-07-04T23:22:15.318Z,94759.67
2018-07-04T23:25:02.004Z,94760.11
2018-07-04T23:27:48.763Z,94766.67
2018-07-04T23:30:35.518Z,94760.84
2018-07-04T23:33:22.433Z,94762.97
2018-07-04T23:36:09.686Z,94764.02
2018-07-04T23:38:56.472Z,94768.55
2018-07-04T23:41:43.919Z,94768.55
2018-07-04T23:44:30.495Z,94755.61
2018-07-04T23:47:17.315Z,94753.14
2018-07-04T23:50:03.648Z,94747.55
2018-07-04T23:52:50.371Z,94751.72
2018-07-04T23:55:37.236Z,94750.30
2018-07-04T23:58:24.586Z,94744.84
